createdAt,value
2019-05-19T00:00:36.040Z,100138.30
2019-05-19T00:03:05.739Z,100133.36
2019-05-19T00:05:35.936Z,100137.67
2019-05-19T00:08:05.599Z,100139.94
2019-05-19T00:10:35.998Z,100139.77
2019-05-19T00:13:05.660Z,100140.34
2019-05-19T00:15:35.303Z,100140.17
2019-05-19T00:18:05.335Z,100146.66
2019-05-19T00:20:34.969Z,100139.75
2019-05-19T00:23:05.163Z,100146.41
2019-05-19T00:25:34.996Z,100145.09
2019-05-19T00:28:05.358Z,100148.20
2019-05-19T00:30:34.989Z,100146.34
2019-05-19T00:33:05.163Z,100143.62
2019-05-19T00:35:35.627Z,100147.45
2019-05-19T00:38:05.360Z,100136.45
2019-05-19T00:40:34.994Z,100139.56
2019-05-19T00:43:05.158Z,100142.04
2019-05-19T00:45:34.795Z,100138.36
2019-05-19T00:48:05.343Z,100140.40
2019-05-19T00:50:34.981Z,100130.73
2019-05-19T00:53:05.163Z,100136.63
2019-05-19T00:55:34.959Z,100137.62
2019-05-19T00:58:05.248Z,100138.58
2019-05-19T01:00:34.951Z,100127.78
2019-05-19T01:03:05.260Z,100129.42
2019-05-19T01:05:34.902Z,100127.09
2019-05-19T01:08:05.314Z,100123.88
2019-05-19T01:10:34.955Z,100127.51
2019-05-19T01:13:05.241Z,100129.78
2019-05-19T01:15:34.977Z,100125.71
2019-05-19T01:18:05.371Z,100123.20
2019-05-19T01:20:35.171Z,100122.64
2019-05-19T01:23:05.194Z,100124.22
2019-05-19T01:25:35.232Z,100123.39
2019-05-19T01:28:05.378Z,100112.89
2019-05-19T01:30:35.010Z,100112.30
2019-05-19T01:33:05.210Z,100119.47
2019-05-19T01:35:34.843Z,100110.27
2019-05-19T01:38:04.509Z,100105.36
2019-05-19T01:40:34.207Z,100113.98
2019-05-19T01:43:04.034Z,100104.77
2019-05-19T01:45:33.735Z,100100.03
2019-05-19T01:48:04.050Z,100101.86
2019-05-19T01:50:33.745Z,100093.16
2019-05-19T01:53:03.859Z,100088.17
2019-05-19T01:55:33.491Z,100084.05
2019-05-19T01:58:03.858Z,100093.82
2019-05-19T02:00:33.492Z,100087.72
2019-05-19T02:03:03.158Z,100087.30
2019-05-19T02:05:32.789Z,100088.35
2019-05-19T02:08:02.454Z,100093.50
2019-05-19T02:10:32.086Z,100092.56
2019-05-19T02:13:04.899Z,100103.45
2019-05-19T02:15:33.102Z,100114.63
2019-05-19T02:18:02.762Z,100103.98
2019-05-19T02:20:33.809Z,100114.24
2019-05-19T02:23:03.959Z,100118.72
2019-05-19T02:25:33.595Z,100117.31
2019-05-19T02:28:03.815Z,100111.37
2019-05-19T02:30:33.454Z,100117.06
2019-05-19T02:33:03.112Z,100112.91
2019-05-19T02:35:32.754Z,100111.74
2019-05-19T02:38:02.416Z,100114.16
2019-05-19T02:40:33.759Z,100115.23
2019-05-19T02:43:05.423Z,100104.55
2019-05-19T02:45:36.307Z,100107.02
2019-05-19T02:48:06.594Z,100114.89
2019-05-19T02:50:51.577Z,100117.46
2019-05-19T02:53:10.863Z,100106.58
2019-05-19T02:55:41.932Z,100102.94
2019-05-19T02:58:13.129Z,100106.73
2019-05-19T03:00:43.439Z,100098.75
2019-05-19T03:03:13.177Z,100107.31
2019-05-19T03:05:42.832Z,100107.53
2019-05-19T03:08:12.500Z,100097.33
2019-05-19T03:10:42.149Z,100102.33
2019-05-19T03:13:11.827Z,100098.70
2019-05-19T03:15:41.548Z,100096.66
2019-05-19T03:18:11.173Z,100088.92
2019-05-19T03:20:40.866Z,100089.14
2019-05-19T03:23:10.485Z,100098.50
2019-05-19T03:25:44.128Z,100096.92
2019-05-19T03:28:11.956Z,100100.97
2019-05-19T03:30:57.996Z,100097.98
2019-05-19T03:33:45.233Z,100097.86
2019-05-19T03:36:14.903Z,100100.61
2019-05-19T03:38:44.534Z,100109.22
2019-05-19T03:41:14.196Z,100112.75
2019-05-19T03:43:43.830Z,100116.52
2019-05-19T03:46:13.492Z,100110.17
2019-05-19T03:48:43.132Z,100105.81
2019-05-19T03:51:29.222Z,100102.11
2019-05-19T03:53:44.106Z,100105.55
2019-05-19T03:56:13.783Z,100102.45
2019-05-19T03:58:43.417Z,100100.61
2019-05-19T04:01:13.082Z,100098.08
2019-05-19T04:03:42.711Z,100104.34
2019-05-19T04:06:12.365Z,100103.28
2019-05-19T04:08:42.006Z,100099.49
2019-05-19T04:11:11.765Z,100112.32
2019-05-19T04:13:41.408Z,100111.67
2019-05-19T04:16:11.066Z,100120.34
2019-05-19T04:18:40.701Z,100118.45
2019-05-19T04:21:10.567Z,100120.78
2019-05-19T04:23:40.195Z,100126.19
2019-05-19T04:26:09.859Z,100126.41
2019-05-19T04:28:39.554Z,100123.83
2019-05-19T04:31:09.239Z,100127.66
2019-05-19T04:33:39.117Z,100125.23
2019-05-19T04:36:08.780Z,100127.67
2019-05-19T04:38:38.428Z,100132.51
2019-05-19T04:41:08.400Z,100129.88
2019-05-19T04:43:38.045Z,100130.01
2019-05-19T04:46:08.415Z,100135.76
2019-05-19T04:48:38.048Z,100132.48
2019-05-19T04:51:09.221Z,100131.92
2019-05-19T04:53:40.620Z,100127.37
2019-05-19T04:56:10.281Z,100138.87
2019-05-19T04:58:39.926Z,100144.70
2019-05-19T05:01:09.589Z,100136.63
2019-05-19T05:03:39.224Z,100142.30
2019-05-19T05:06:09.139Z,100134.83
2019-05-19T05:08:38.774Z,100113.73
2019-05-19T05:11:08.447Z,100115.07
2019-05-19T05:13:38.087Z,100117.91
2019-05-19T05:16:08.280Z,100107.88
2019-05-19T05:18:37.911Z,100095.86
2019-05-19T05:21:07.573Z,100091.33
2019-05-19T05:23:37.516Z,100082.00
2019-05-19T05:26:07.180Z,100080.09
2019-05-19T05:28:36.806Z,100074.84
2019-05-19T05:31:06.800Z,100083.98
2019-05-19T05:33:36.440Z,100074.87
2019-05-19T05:36:06.117Z,100077.89
2019-05-19T05:38:35.746Z,100078.32
2019-05-19T05:41:05.481Z,100074.26
2019-05-19T05:43:35.121Z,100076.11
2019-05-19T05:46:05.429Z,100074.33
2019-05-19T05:48:35.061Z,100072.58
2019-05-19T05:51:05.438Z,100073.12
2019-05-19T05:53:35.074Z,100078.42
2019-05-19T05:56:05.375Z,100078.53
2019-05-19T05:58:35.009Z,100076.66
2019-05-19T06:01:05.073Z,100063.63
2019-05-19T06:03:35.198Z,100063.03
2019-05-19T06:06:05.330Z,100073.45
2019-05-19T06:08:34.963Z,100093.94
2019-05-19T06:11:04.627Z,100113.81
2019-05-19T06:13:34.282Z,100105.59
2019-05-19T06:16:03.910Z,100111.30
2019-05-19T06:18:33.839Z,100098.57
2019-05-19T06:21:03.472Z,100089.42
2019-05-19T06:23:33.127Z,100095.19
2019-05-19T06:26:02.778Z,100087.75
2019-05-19T06:28:32.434Z,100076.27
2019-05-19T06:31:02.072Z,100065.62
2019-05-19T06:33:31.827Z,100065.89
2019-05-19T06:36:01.497Z,100057.24
2019-05-19T06:38:31.297Z,100049.52
2019-05-19T06:41:00.945Z,100043.92
2019-05-19T06:43:30.700Z,100043.30
2019-05-19T06:46:00.329Z,100039.91
2019-05-19T06:48:30.024Z,100035.45
2019-05-19T06:50:59.630Z,100039.41
2019-05-19T06:53:29.303Z,100036.14
2019-05-19T06:55:59.014Z,100035.30
2019-05-19T06:58:28.693Z,100036.80
2019-05-19T07:00:59.258Z,100048.36
2019-05-19T07:03:29.152Z,100073.18
2019-05-19T07:05:58.786Z,100141.82
2019-05-19T07:08:28.451Z,100131.64
2019-05-19T07:10:58.090Z,100140.12
2019-05-19T07:13:27.773Z,100124.61
2019-05-19T07:15:57.415Z,100130.28
2019-05-19T07:18:27.271Z,100136.06
2019-05-19T07:20:56.909Z,100142.09
2019-05-19T07:23:28.627Z,100130.30
2019-05-19T07:25:57.867Z,100139.67
2019-05-19T07:28:27.520Z,100141.15
2019-05-19T07:30:57.145Z,100127.17
2019-05-19T07:33:26.901Z,100110.45
2019-05-19T07:35:56.516Z,100100.95
2019-05-19T07:38:26.174Z,100101.38
2019-05-19T07:40:55.803Z,100102.19
2019-05-19T07:43:25.456Z,100108.45
2019-05-19T07:45:55.085Z,100103.38
2019-05-19T07:48:24.749Z,100117.91
2019-05-19T07:50:54.373Z,100118.75
2019-05-19T07:53:24.045Z,100111.11
2019-05-19T07:55:53.679Z,100094.25
2019-05-19T07:58:23.329Z,100092.20
2019-05-19T08:00:52.958Z,100106.77
2019-05-19T08:03:22.609Z,100103.46
2019-05-19T08:05:52.240Z,100109.70
2019-05-19T08:08:21.994Z,100107.89
2019-05-19T08:10:51.618Z,100097.65
2019-05-19T08:13:21.278Z,100093.92
2019-05-19T08:15:50.912Z,100081.29
2019-05-19T08:18:20.574Z,100071.67
2019-05-19T08:20:50.214Z,100071.87
2019-05-19T08:23:19.864Z,100067.16
2019-05-19T08:25:49.485Z,100057.34
2019-05-19T08:28:19.144Z,100056.09
2019-05-19T08:30:48.775Z,100060.45
2019-05-19T08:33:18.448Z,100058.38
2019-05-19T08:35:48.082Z,100058.19
2019-05-19T08:38:17.734Z,100067.16
2019-05-19T08:40:47.420Z,100065.84
2019-05-19T08:43:17.112Z,100062.91
2019-05-19T08:45:46.736Z,100066.48
2019-05-19T08:48:16.391Z,100069.69
2019-05-19T08:50:46.049Z,100067.41
2019-05-19T08:53:15.675Z,100072.59
2019-05-19T08:55:45.340Z,100072.93
2019-05-19T08:58:15.202Z,100069.50
2019-05-19T09:00:44.862Z,100070.82
2019-05-19T09:03:14.495Z,100068.82
2019-05-19T09:05:44.155Z,100069.16
2019-05-19T09:08:13.780Z,100069.09
2019-05-19T09:10:43.438Z,100064.42
2019-05-19T09:13:13.092Z,100065.67
2019-05-19T09:15:42.732Z,100075.41
2019-05-19T09:18:12.362Z,100072.06
2019-05-19T09:20:42.025Z,100065.66
2019-05-19T09:23:11.657Z,100066.03
2019-05-19T09:25:41.330Z,100065.44
2019-05-19T09:28:10.967Z,100067.81
2019-05-19T09:30:40.639Z,100064.53
2019-05-19T09:33:10.264Z,100064.91
2019-05-19T09:35:40.050Z,100062.45
2019-05-19T09:38:10.173Z,100058.19
2019-05-19T09:40:40.609Z,100058.58
2019-05-19T09:43:10.235Z,100056.44
2019-05-19T09:45:39.892Z,100058.84
2019-05-19T09:48:09.517Z,100056.45
2019-05-19T09:50:39.183Z,100056.86
2019-05-19T09:53:09.171Z,100061.31
2019-05-19T09:55:38.790Z,100060.38
2019-05-19T09:58:08.421Z,100058.18
2019-05-19T10:00:38.346Z,100055.52
2019-05-19T10:03:07.974Z,100051.99
2019-05-19T10:05:38.366Z,100052.38
2019-05-19T10:08:08.007Z,100046.50
2019-05-19T10:10:46.371Z,100045.88
2019-05-19T10:13:16.015Z,100048.23
2019-05-19T10:15:45.690Z,100046.45
2019-05-19T10:18:15.353Z,100040.67
2019-05-19T10:20:45.046Z,100035.25
2019-05-19T10:23:14.656Z,100038.98
2019-05-19T10:25:44.322Z,100039.67
2019-05-19T10:28:13.965Z,100042.88
2019-05-19T10:30:43.628Z,100036.68
2019-05-19T10:33:13.263Z,100030.39
2019-05-19T10:35:42.943Z,100020.44
2019-05-19T10:38:12.582Z,100016.87
2019-05-19T10:40:42.256Z,100011.31
2019-05-19T10:43:11.891Z,100013.27
2019-05-19T10:45:41.630Z,100004.98
2019-05-19T10:48:11.298Z,100005.17
2019-05-19T10:50:40.954Z,100010.25
2019-05-19T10:53:10.714Z,100002.48
2019-05-19T10:55:40.621Z,99983.05
2019-05-19T10:58:10.285Z,100004.88
2019-05-19T11:00:39.955Z,100003.20
2019-05-19T11:03:09.578Z,99996.23
2019-05-19T11:05:39.222Z,99996.83
2019-05-19T11:08:09.155Z,99994.52
2019-05-19T11:10:38.788Z,99987.97
2019-05-19T11:13:08.465Z,99993.23
2019-05-19T11:15:38.115Z,99985.80
2019-05-19T11:18:08.291Z,99984.97
2019-05-19T11:20:37.967Z,99986.47
2019-05-19T11:23:07.634Z,99981.16
2019-05-19T11:25:50.705Z,99986.84
2019-05-19T11:28:09.121Z,99981.44
2019-05-19T11:30:38.752Z,99980.14
2019-05-19T11:33:08.443Z,99975.41
2019-05-19T11:35:38.066Z,99970.94
2019-05-19T11:38:08.407Z,99969.72
2019-05-19T11:40:38.023Z,99973.46
2019-05-19T11:43:08.408Z,99966.44
2019-05-19T11:45:38.034Z,99967.81
2019-05-19T11:48:08.416Z,99961.55
2019-05-19T11:50:41.862Z,99965.39
2019-05-19T11:53:09.632Z,99957.17
2019-05-19T11:55:39.259Z,99960.02
2019-05-19T11:58:09.189Z,99959.50
2019-05-19T12:00:38.893Z,99952.44
2019-05-19T12:03:09.195Z,99955.16
2019-05-19T12:05:38.827Z,99947.26
2019-05-19T12:08:08.482Z,99941.75
2019-05-19T12:10:38.112Z,99940.32
2019-05-19T12:13:08.409Z,99940.11
2019-05-19T12:15:38.046Z,99936.02
2019-05-19T12:18:08.385Z,99939.76
2019-05-19T12:20:38.027Z,99941.50
2019-05-19T12:23:08.402Z,99941.28
2019-05-19T12:25:38.150Z,99935.95
2019-05-19T12:28:08.390Z,99929.73
2019-05-19T12:30:38.015Z,99926.08
2019-05-19T12:33:08.374Z,99925.97
2019-05-19T12:35:38.388Z,99925.82
2019-05-19T12:38:08.405Z,99921.20
2019-05-19T12:40:38.024Z,99917.77
2019-05-19T12:43:08.402Z,99915.25
2019-05-19T12:45:38.043Z,99912.22
2019-05-19T12:48:08.395Z,99889.41
2019-05-19T12:50:38.097Z,99889.41
2019-05-19T12:53:08.410Z,99894.31
2019-05-19T12:55:38.037Z,99897.61
2019-05-19T12:58:08.400Z,99896.67
2019-05-19T13:00:38.029Z,99894.36
2019-05-19T13:03:08.402Z,99900.32
2019-05-19T13:05:38.024Z,99889.91
2019-05-19T13:08:11.382Z,99886.16
2019-05-19T13:10:39.822Z,99891.24
2019-05-19T13:13:09.468Z,99897.83
2019-05-19T13:15:39.162Z,99880.23
2019-05-19T13:18:08.820Z,99900.49
2019-05-19T13:20:38.429Z,99892.47
2019-05-19T13:23:08.394Z,99887.77
2019-05-19T13:25:38.010Z,99892.38
2019-05-19T13:28:08.399Z,99888.69
2019-05-19T13:30:38.021Z,99888.78
2019-05-19T13:33:08.407Z,99878.17
2019-05-19T13:35:38.023Z,99880.66
2019-05-19T13:38:08.397Z,99881.46
2019-05-19T13:40:38.014Z,99876.43
2019-05-19T13:43:08.399Z,99873.47
2019-05-19T13:45:38.092Z,99870.89
2019-05-19T13:48:08.398Z,99866.23
2019-05-19T13:50:38.232Z,99870.57
2019-05-19T13:53:08.405Z,99866.56
2019-05-19T13:55:38.391Z,99873.56
2019-05-19T13:58:08.382Z,99866.05
2019-05-19T14:00:38.401Z,99865.83
2019-05-19T14:03:08.036Z,99869.43
2019-05-19T14:05:38.401Z,99862.94
2019-05-19T14:08:09.523Z,99859.37
2019-05-19T14:10:39.167Z,99852.55
2019-05-19T14:13:09.181Z,99847.11
2019-05-19T14:15:38.850Z,99845.67
2019-05-19T14:18:08.481Z,99855.55
2019-05-19T14:20:38.395Z,99855.73
2019-05-19T14:23:08.021Z,99864.45
2019-05-19T14:25:38.389Z,99867.95
2019-05-19T14:28:08.021Z,99869.78
2019-05-19T14:30:38.377Z,99870.84
2019-05-19T14:33:07.996Z,99865.73
2019-05-19T14:35:37.640Z,99861.19
2019-05-19T14:38:07.562Z,99860.65
2019-05-19T14:40:37.202Z,99862.05
2019-05-19T14:43:07.856Z,99846.70
2019-05-19T14:45:37.609Z,99846.70
2019-05-19T14:48:07.587Z,99838.27
2019-05-19T14:50:37.236Z,99834.66
2019-05-19T14:53:06.854Z,99855.72
2019-05-19T14:55:36.924Z,99855.72
2019-05-19T14:58:06.557Z,99862.38
2019-05-19T15:00:36.843Z,99856.19
2019-05-19T15:03:06.479Z,99856.19
2019-05-19T15:05:36.138Z,99812.08
2019-05-19T15:08:05.810Z,99834.71
2019-05-19T15:10:35.415Z,99834.71
2019-05-19T15:13:05.028Z,99842.23
2019-05-19T15:15:35.351Z,99844.65
2019-05-19T15:18:04.976Z,99850.08
2019-05-19T15:20:34.623Z,99852.50
2019-05-19T15:23:04.249Z,99827.38
2019-05-19T15:25:33.913Z,99853.91
2019-05-19T15:28:05.443Z,99853.91
2019-05-19T15:30:35.368Z,99855.25
2019-05-19T15:33:04.995Z,99861.38
2019-05-19T15:35:35.183Z,99861.38
2019-05-19T15:38:04.945Z,99847.13
2019-05-19T15:40:34.586Z,99875.39
2019-05-19T15:43:04.195Z,99863.90
2019-05-19T15:45:33.844Z,99867.27
2019-05-19T15:48:03.473Z,99861.83
2019-05-19T15:50:33.127Z,99870.53
2019-05-19T15:53:02.740Z,99880.15
2019-05-19T15:55:32.400Z,99888.91
2019-05-19T15:58:15.461Z,99865.42
2019-05-19T16:00:33.825Z,99865.42
2019-05-19T16:03:03.460Z,99880.25
2019-05-19T16:05:33.184Z,99888.16
2019-05-19T16:08:02.797Z,99884.70
2019-05-19T16:10:32.457Z,99874.41
2019-05-19T16:13:02.069Z,99870.25
2019-05-19T16:15:31.715Z,99870.22
2019-05-19T16:18:01.336Z,99873.08
2019-05-19T16:20:31.081Z,99869.81
2019-05-19T16:23:00.756Z,99872.73
2019-05-19T16:25:30.482Z,99873.92
2019-05-19T16:28:00.127Z,99880.98
2019-05-19T16:30:29.749Z,99873.34
2019-05-19T16:32:59.391Z,99873.13
2019-05-19T16:35:29.016Z,99872.19
2019-05-19T16:37:58.706Z,99873.91
2019-05-19T16:40:28.312Z,99868.66
2019-05-19T16:42:57.948Z,99874.31
2019-05-19T16:45:28.559Z,99882.64
2019-05-19T16:47:58.311Z,99893.13
2019-05-19T16:50:28.131Z,99891.00
2019-05-19T16:52:57.961Z,99891.20
2019-05-19T16:55:29.359Z,99893.09
2019-05-19T16:57:59.013Z,99891.96
2019-05-19T17:00:29.471Z,99886.52
2019-05-19T17:02:59.117Z,99890.64
2019-05-19T17:05:28.842Z,99891.41
2019-05-19T17:07:58.488Z,99886.42
2019-05-19T17:10:28.181Z,99884.06
2019-05-19T17:12:57.850Z,99878.41
2019-05-19T17:15:27.451Z,99879.87
2019-05-19T17:17:57.104Z,99883.86
2019-05-19T17:20:26.728Z,99886.20
2019-05-19T17:22:56.679Z,99890.65
2019-05-19T17:25:26.306Z,99890.06
2019-05-19T17:27:55.979Z,99896.09
2019-05-19T17:30:25.578Z,99885.53
2019-05-19T17:32:55.334Z,99884.31
2019-05-19T17:35:24.949Z,99874.49
2019-05-19T17:37:54.592Z,99880.55
2019-05-19T17:40:24.284Z,99874.91
2019-05-19T17:42:53.933Z,99882.73
2019-05-19T17:45:23.625Z,99884.73
2019-05-19T17:47:57.631Z,99884.73
2019-05-19T17:50:33.739Z,99889.42
2019-05-19T17:53:17.298Z,99888.50
2019-05-19T17:55:48.450Z,99888.59
2019-05-19T17:58:18.287Z,99891.75
2019-05-19T18:00:47.930Z,99899.83
2019-05-19T18:03:17.563Z,99884.13
2019-05-19T18:05:47.184Z,99882.41
2019-05-19T18:08:16.834Z,99879.84
2019-05-19T18:10:46.449Z,99868.28
2019-05-19T18:13:16.105Z,99868.78
2019-05-19T18:15:45.725Z,99859.00
2019-05-19T18:18:15.376Z,99856.05
2019-05-19T18:20:47.046Z,99849.20
2019-05-19T18:23:16.511Z,99850.53
2019-05-19T18:25:46.104Z,99848.23
2019-05-19T18:28:15.763Z,99840.95
2019-05-19T18:30:45.490Z,99836.84
2019-05-19T18:33:15.244Z,99840.55
2019-05-19T18:35:44.884Z,99852.77
2019-05-19T18:38:14.640Z,99852.27
2019-05-19T18:40:44.263Z,99848.14
2019-05-19T18:43:13.930Z,99853.31
2019-05-19T18:45:43.636Z,99855.24
2019-05-19T18:48:13.441Z,99853.44
2019-05-19T18:50:43.117Z,99857.72
2019-05-19T18:53:13.577Z,99872.88
2019-05-19T18:55:43.303Z,99876.09
2019-05-19T18:58:14.316Z,99878.28
2019-05-19T19:00:44.031Z,99888.59
2019-05-19T19:03:13.687Z,99903.57
2019-05-19T19:05:43.313Z,99895.66
2019-05-19T19:08:12.954Z,99893.68
2019-05-19T19:10:42.580Z,99892.24
2019-05-19T19:13:12.415Z,99889.27
2019-05-19T19:15:42.060Z,99900.59
2019-05-19T19:18:11.851Z,99908.21
2019-05-19T19:20:41.761Z,99923.33
2019-05-19T19:23:11.404Z,99919.05
2019-05-19T19:25:41.277Z,99917.75
2019-05-19T19:28:11.224Z,99931.34
2019-05-19T19:30:41.241Z,99930.38
2019-05-19T19:33:11.224Z,99918.30
2019-05-19T19:35:41.273Z,99923.95
2019-05-19T19:38:11.478Z,99920.93
2019-05-19T19:40:44.872Z,99913.98
2019-05-19T19:43:15.411Z,99916.48
2019-05-19T19:45:45.072Z,99914.48
2019-05-19T19:48:14.753Z,99908.87
2019-05-19T19:50:44.483Z,99907.22
2019-05-19T19:53:14.425Z,99912.34
2019-05-19T19:55:44.850Z,99909.70
2019-05-19T19:58:16.285Z,99904.39
2019-05-19T20:00:49.072Z,99900.42
2019-05-19T20:03:19.692Z,99893.31
2019-05-19T20:05:49.627Z,99885.03
2019-05-19T20:08:23.917Z,99887.17
2019-05-19T20:10:58.717Z,99877.26
2019-05-19T20:13:28.382Z,99876.75
2019-05-19T20:15:58.148Z,99873.29
2019-05-19T20:18:28.949Z,99867.15
2019-05-19T20:20:58.603Z,99863.50
2019-05-19T20:23:28.221Z,99860.39
2019-05-19T20:25:58.017Z,99857.23
2019-05-19T20:28:27.944Z,99861.19
2019-05-19T20:30:57.731Z,99864.02
2019-05-19T20:33:27.597Z,99863.50
2019-05-19T20:36:00.438Z,99864.81
2019-05-19T20:38:33.956Z,99856.08
2019-05-19T20:41:04.868Z,99854.59
2019-05-19T20:43:34.773Z,99851.59
2019-05-19T20:46:07.006Z,99849.28
2019-05-19T20:48:38.886Z,99856.55
2019-05-19T20:51:10.081Z,99858.84
2019-05-19T20:53:40.684Z,99856.03
2019-05-19T20:56:10.376Z,99862.81
2019-05-19T20:58:40.332Z,99862.17
2019-05-19T21:01:12.301Z,99864.92
2019-05-19T21:03:42.074Z,99859.52
2019-05-19T21:06:12.130Z,99859.80
2019-05-19T21:08:44.116Z,99851.38
2019-05-19T21:11:14.427Z,99851.50
2019-05-19T21:13:44.596Z,99854.96
2019-05-19T21:16:16.921Z,99849.83
2019-05-19T21:18:47.419Z,99851.80
2019-05-19T21:21:17.849Z,99850.45
2019-05-19T21:23:48.385Z,99848.61
2019-05-19T21:26:20.612Z,99842.98
2019-05-19T21:28:50.326Z,99853.88
2019-05-19T21:31:21.051Z,99846.06
2019-05-19T21:33:50.771Z,99844.83
2019-05-19T21:36:22.049Z,99844.14
2019-05-19T21:38:51.781Z,99848.91
2019-05-19T21:41:21.559Z,99852.52
2019-05-19T21:43:51.484Z,99846.98
2019-05-19T21:46:22.273Z,99850.77
2019-05-19T21:48:52.668Z,99848.59
2019-05-19T21:51:24.095Z,99851.05
2019-05-19T21:53:53.712Z,99854.13
2019-05-19T21:56:23.349Z,99852.63
2019-05-19T21:58:53.473Z,99859.19
2019-05-19T22:01:23.795Z,99852.10
2019-05-19T22:03:53.534Z,99857.86
2019-05-19T22:06:25.059Z,99852.85
2019-05-19T22:08:54.806Z,99852.19
2019-05-19T22:11:25.314Z,99858.92
2019-05-19T22:13:55.374Z,99862.52
2019-05-19T22:16:25.337Z,99865.94
2019-05-19T22:18:55.151Z,99866.55
2019-05-19T22:21:24.968Z,99864.22
2019-05-19T22:23:54.691Z,99868.78
2019-05-19T22:26:24.562Z,99868.42
2019-05-19T22:28:54.195Z,99870.69
2019-05-19T22:31:36.240Z,99870.64
2019-05-19T22:33:55.863Z,99867.47
2019-05-19T22:36:27.852Z,99867.28
2019-05-19T22:38:57.488Z,99864.81
2019-05-19T22:41:27.131Z,99867.28
2019-05-19T22:43:57.613Z,99867.45
2019-05-19T22:46:27.415Z,99867.64
2019-05-19T22:48:57.145Z,99862.80
2019-05-19T22:51:26.776Z,99863.14
2019-05-19T22:53:56.425Z,99862.17
2019-05-19T22:56:26.470Z,99858.03
2019-05-19T22:58:56.283Z,99853.84
2019-05-19T23:01:26.252Z,99862.48
2019-05-19T23:03:56.023Z,99854.52
2019-05-19T23:06:25.749Z,99853.20
2019-05-19T23:08:55.494Z,99859.45
2019-05-19T23:11:26.939Z,99855.12
2019-05-19T23:13:56.905Z,99858.72
2019-05-19T23:16:26.781Z,99860.23
2019-05-19T23:18:57.022Z,99850.69
2019-05-19T23:21:26.733Z,99846.86
2019-05-19T23:23:56.380Z,99845.66
2019-05-19T23:26:26.225Z,99846.44
2019-05-19T23:28:56.111Z,99853.66
2019-05-19T23:31:27.568Z,99849.47
2019-05-19T23:33:57.198Z,99854.26
2019-05-19T23:36:26.817Z,99855.77
2019-05-19T23:38:58.209Z,99852.30
2019-05-19T23:41:29.436Z,99855.47
2019-05-19T23:43:59.628Z,99845.70
2019-05-19T23:46:29.629Z,99847.31
2019-05-19T23:48:59.590Z,99851.86
2019-05-19T23:51:29.311Z,99855.20
2019-05-19T23:53:59.571Z,99857.77
2019-05-19T23:56:32.030Z,99852.73
2019-05-19T23:59:02.761Z,99853.61
